RYR72WM LEAL-LEPA
Flight info
| Callsign | RYR72WM |
|---|---|
| Flight time | N/A |
| Altitude | 27000 |
| Route | MITOS DCT VARUT DCT GODOX |
| Aircraft | B38M/M-SDE1FGHILORVWXY/HB1 |
Departure
| Time | 2026-05-06 18:59 |
|---|---|
| Airport | Alicante-Elche Miguel Hernández Airport (LEAL) |
Arrival
| Time | N/A |
|---|---|
| Airport | Palma de Mallorca Airport (LEPA) |
| Time | Latitude | Longitude | Altitude | Speed | Heading |
|---|---|---|---|---|---|
| 2026-05-06 18:52 | 38.28553 | -0.55403 | 89 ft | 0 kts | 10° |
| 2026-05-06 18:54 | 38.28545 | -0.55405 | 89 ft | 2 kts | 10° |
| 2026-05-06 18:54 | 38.28522 | -0.55410 | 90 ft | 4 kts | 10° |
| 2026-05-06 18:54 | 38.28492 | -0.55414 | 90 ft | 4 kts | 343° |
| 2026-05-06 18:55 | 38.28470 | -0.55396 | 92 ft | 0 kts | 304° |
| 2026-05-06 18:55 | 38.28468 | -0.55393 | 92 ft | 0 kts | 285° |
| 2026-05-06 18:56 | 38.28468 | -0.55397 | 92 ft | 6 kts | 284° |
| 2026-05-06 18:57 | 38.28498 | -0.55593 | 95 ft | 31 kts | 285° |
| 2026-05-06 18:57 | 38.28544 | -0.55901 | 99 ft | 36 kts | 279° |
| 2026-05-06 18:57 | 38.28604 | -0.56255 | 104 ft | 46 kts | 279° |
| 2026-05-06 18:57 | 38.28607 | -0.56595 | 118 ft | 28 kts | 206° |
| 2026-05-06 18:58 | 38.28524 | -0.56763 | 123 ft | 29 kts | 282° |
| 2026-05-06 18:58 | 38.28477 | -0.56926 | 133 ft | 29 kts | 135° |
| 2026-05-06 18:58 | 38.28329 | -0.56612 | 120 ft | 63 kts | 102° |
| 2026-05-06 18:58 | 38.28201 | -0.55706 | 100 ft | 145 kts | 100° |
| 2026-05-06 18:59 | 38.27969 | -0.54130 | 310 ft | 209 kts | 100° |
| 2026-05-06 18:59 | 38.27691 | -0.52047 | 730 ft | 260 kts | 91° |
| 2026-05-06 18:59 | 38.28123 | -0.49938 | 2572 ft | 244 kts | 63° |
| 2026-05-06 18:59 | 38.28880 | -0.48076 | 4506 ft | 231 kts | 64° |
| 2026-05-06 19:00 | 38.29606 | -0.46297 | 6111 ft | 223 kts | 62° |
| 2026-05-06 19:00 | 38.30337 | -0.44575 | 7341 ft | 223 kts | 60° |
| 2026-05-06 19:00 | 38.31089 | -0.42809 | 8312 ft | 230 kts | 59° |
| 2026-05-06 19:00 | 38.31607 | -0.41592 | 8994 ft | 234 kts | 59° |
| 2026-05-06 19:01 | 38.32605 | -0.39105 | 10249 ft | 242 kts | 65° |
| 2026-05-06 19:01 | 38.33210 | -0.37075 | 11168 ft | 248 kts | 68° |
| 2026-05-06 19:01 | 38.33858 | -0.35024 | 12068 ft | 251 kts | 66° |
| 2026-05-06 19:01 | 38.34526 | -0.32947 | 12974 ft | 256 kts | 68° |
| 2026-05-06 19:02 | 38.35184 | -0.30809 | 13853 ft | 261 kts | 69° |
| 2026-05-06 19:02 | 38.35839 | -0.28634 | 14632 ft | 265 kts | 66° |
| 2026-05-06 19:02 | 38.36594 | -0.26472 | 15401 ft | 270 kts | 65° |
| 2026-05-06 19:02 | 38.37347 | -0.24251 | 16174 ft | 275 kts | 66° |
| 2026-05-06 19:03 | 38.38094 | -0.21989 | 16936 ft | 279 kts | 66° |
| 2026-05-06 19:03 | 38.38862 | -0.19693 | 17682 ft | 284 kts | 66° |
| 2026-05-06 19:03 | 38.39637 | -0.17358 | 18400 ft | 289 kts | 66° |
| 2026-05-06 19:03 | 38.40434 | -0.14983 | 19009 ft | 294 kts | 66° |
| 2026-05-06 19:04 | 38.41234 | -0.12555 | 19608 ft | 299 kts | 66° |
| 2026-05-06 19:04 | 38.42054 | -0.10095 | 20203 ft | 305 kts | 66° |
| 2026-05-06 19:04 | 38.42888 | -0.07581 | 20797 ft | 310 kts | 67° |
| 2026-05-06 19:04 | 38.43769 | -0.05048 | 21385 ft | 314 kts | 60° |
| 2026-05-06 19:05 | 38.44896 | -0.02682 | 21960 ft | 318 kts | 52° |
| 2026-05-06 19:05 | 38.46246 | -0.00422 | 22540 ft | 322 kts | 47° |
| 2026-05-06 19:05 | 38.47702 | 0.01764 | 23108 ft | 326 kts | 46° |
| 2026-05-06 19:05 | 38.49282 | 0.03869 | 23638 ft | 329 kts | 37° |
| 2026-05-06 19:06 | 38.51009 | 0.05800 | 24123 ft | 332 kts | 40° |
| 2026-05-06 19:06 | 38.52680 | 0.07868 | 24593 ft | 336 kts | 40° |
| 2026-05-06 19:06 | 38.54409 | 0.09902 | 25053 ft | 340 kts | 38° |
| 2026-05-06 19:06 | 38.56154 | 0.11962 | 25518 ft | 344 kts | 40° |
| 2026-05-06 19:07 | 38.57899 | 0.14077 | 25968 ft | 347 kts | 39° |
| 2026-05-06 19:07 | 38.59105 | 0.15504 | 26270 ft | 350 kts | 39° |
| 2026-05-06 19:07 | 38.61483 | 0.18348 | 26733 ft | 360 kts | 40° |
| 2026-05-06 19:07 | 38.62730 | 0.19838 | 26851 ft | 369 kts | 40° |
| 2026-05-06 19:08 | 38.64631 | 0.22111 | 26951 ft | 387 kts | 40° |
| 2026-05-06 19:08 | 38.66646 | 0.24533 | 26981 ft | 407 kts | 40° |
| 2026-05-06 19:08 | 38.68769 | 0.27072 | 26989 ft | 429 kts | 40° |
| 2026-05-06 19:08 | 38.70999 | 0.29757 | 26980 ft | 451 kts | 40° |
| 2026-05-06 19:09 | 38.74130 | 0.33514 | 26968 ft | 480 kts | 41° |
| 2026-05-06 19:09 | 38.75795 | 0.35524 | 26960 ft | 494 kts | 41° |
| 2026-05-06 19:09 | 38.78361 | 0.38601 | 26957 ft | 515 kts | 41° |
| 2026-05-06 19:09 | 38.81027 | 0.41828 | 26946 ft | 536 kts | 41° |
| 2026-05-06 19:10 | 38.83800 | 0.45156 | 26947 ft | 556 kts | 41° |
| 2026-05-06 19:10 | 38.86628 | 0.48594 | 26937 ft | 561 kts | 41° |
| 2026-05-06 19:10 | 38.89433 | 0.51964 | 26929 ft | 561 kts | 41° |
| 2026-05-06 19:10 | 38.92277 | 0.55424 | 26922 ft | 561 kts | 42° |
| 2026-05-06 19:11 | 38.95121 | 0.58859 | 26922 ft | 561 kts | 40° |
| 2026-05-06 19:11 | 38.97955 | 0.62300 | 26932 ft | 561 kts | 42° |
| 2026-05-06 19:11 | 39.00745 | 0.65811 | 26923 ft | 561 kts | 45° |
| 2026-05-06 19:11 | 39.03249 | 0.69668 | 26929 ft | 563 kts | 52° |
| 2026-05-06 19:12 | 39.05341 | 0.73933 | 26940 ft | 564 kts | 60° |
| 2026-05-06 19:12 | 39.07392 | 0.78224 | 26945 ft | 563 kts | 55° |
| 2026-05-06 19:12 | 39.09453 | 0.82521 | 26949 ft | 564 kts | 61° |
| 2026-05-06 19:12 | 39.11494 | 0.86822 | 26946 ft | 563 kts | 54° |
| 2026-05-06 19:13 | 39.13575 | 0.91099 | 26950 ft | 564 kts | 60° |
| 2026-05-06 19:13 | 39.15594 | 0.95424 | 26955 ft | 563 kts | 55° |
| 2026-05-06 19:13 | 39.17691 | 0.99692 | 26954 ft | 564 kts | 60° |
| 2026-05-06 19:13 | 39.19690 | 1.04038 | 26958 ft | 563 kts | 55° |
| 2026-05-06 19:14 | 39.21798 | 1.08292 | 26951 ft | 564 kts | 60° |
| 2026-05-06 19:14 | 39.23778 | 1.12657 | 26964 ft | 563 kts | 55° |
| 2026-05-06 19:14 | 39.25897 | 1.16902 | 26958 ft | 564 kts | 60° |